createdAt,value
2018-09-12T00:00:17.661Z,4.17
2018-09-12T00:02:46.175Z,4.57
2018-09-12T00:05:14.737Z,4.30
2018-09-12T00:07:43.181Z,4.03
2018-09-12T00:10:11.789Z,4.43
2018-09-12T00:12:40.278Z,3.90
2018-09-12T00:15:09.514Z,4.30
2018-09-12T00:17:38.481Z,4.60
2018-09-12T00:20:07.029Z,4.63
2018-09-12T00:22:35.802Z,4.03
2018-09-12T00:25:04.412Z,4.40
2018-09-12T00:27:32.840Z,4.13
2018-09-12T00:30:01.319Z,3.97
2018-09-12T00:32:29.863Z,4.47
2018-09-12T00:34:58.496Z,4.17
2018-09-12T00:37:26.982Z,4.13
2018-09-12T00:39:55.395Z,4.13
2018-09-12T00:42:23.876Z,4.87
2018-09-12T00:44:52.354Z,4.57
2018-09-12T00:47:20.833Z,4.00
2018-09-12T00:49:49.374Z,4.63
2018-09-12T00:52:17.834Z,4.50
2018-09-12T00:54:46.364Z,3.90
2018-09-12T00:57:14.789Z,4.43
2018-09-12T00:59:43.307Z,4.10
2018-09-12T01:02:11.733Z,4.43
2018-09-12T01:04:40.298Z,4.30
2018-09-12T01:07:09.485Z,4.00
2018-09-12T01:09:38.560Z,3.63
2018-09-12T01:12:07.077Z,3.77
2018-09-12T01:14:35.615Z,3.80
2018-09-12T01:17:04.081Z,4.17
2018-09-12T01:19:32.648Z,3.93
2018-09-12T01:22:01.117Z,3.60
2018-09-12T01:24:29.621Z,4.10
2018-09-12T01:26:58.084Z,3.77
2018-09-12T01:29:27.595Z,4.17
2018-09-12T01:31:56.275Z,4.47
2018-09-12T01:34:24.885Z,4.47
2018-09-12T01:36:53.347Z,4.50
2018-09-12T01:39:21.792Z,4.30
2018-09-12T01:41:50.302Z,4.40
2018-09-12T01:44:18.803Z,4.00
2018-09-12T01:46:47.242Z,4.07
2018-09-12T01:49:18.925Z,4.27
2018-09-12T01:51:48.931Z,4.33
2018-09-12T01:54:18.364Z,3.83
2018-09-12T01:56:46.963Z,3.90
2018-09-12T01:59:15.364Z,4.00
2018-09-12T02:01:44.888Z,4.27
2018-09-12T02:04:13.766Z,4.67
2018-09-12T02:06:42.189Z,3.60
2018-09-12T02:09:12.735Z,3.90
2018-09-12T02:11:41.264Z,3.57
2018-09-12T02:14:09.696Z,4.23
2018-09-12T02:16:38.875Z,4.20
2018-09-12T02:19:07.723Z,4.37
2018-09-12T02:21:36.175Z,3.80
2018-09-12T02:24:05.088Z,3.90
2018-09-12T02:26:33.617Z,4.30
2018-09-12T02:29:02.242Z,4.37
2018-09-12T02:31:30.780Z,3.87
2018-09-12T02:33:59.326Z,4.00
2018-09-12T02:36:28.851Z,4.30
2018-09-12T02:38:58.664Z,3.80
2018-09-12T02:41:27.040Z,3.93
2018-09-12T02:43:55.877Z,4.10
2018-09-12T02:46:24.711Z,4.10
2018-09-12T02:48:53.531Z,4.20
2018-09-12T02:51:21.985Z,4.30
2018-09-12T02:53:50.490Z,4.03
2018-09-12T02:56:19.237Z,3.90
2018-09-12T02:58:48.078Z,3.97
2018-09-12T03:01:16.577Z,4.70
2018-09-12T03:03:45.086Z,4.27
2018-09-12T03:06:13.571Z,4.10
2018-09-12T03:08:42.023Z,4.50
2018-09-12T03:11:10.468Z,4.20
2018-09-12T03:13:39.577Z,3.57
2018-09-12T03:16:08.023Z,4.30
2018-09-12T03:18:36.792Z,3.67
2018-09-12T03:21:05.787Z,4.00
2018-09-12T03:23:34.381Z,4.00
2018-09-12T03:26:02.806Z,4.00
2018-09-12T03:28:31.303Z,5.07
2018-09-12T03:30:59.727Z,4.20
2018-09-12T03:33:28.287Z,4.23
2018-09-12T03:35:56.748Z,4.13
2018-09-12T03:38:25.207Z,4.40
2018-09-12T03:40:53.595Z,4.30
2018-09-12T03:43:23.119Z,4.50
2018-09-12T03:45:51.566Z,4.43
2018-09-12T03:48:20.055Z,4.53
2018-09-12T03:50:48.474Z,4.63
2018-09-12T03:53:17.940Z,3.90
2018-09-12T03:55:48.134Z,4.67
2018-09-12T03:58:16.600Z,4.90
2018-09-12T04:00:45.119Z,5.23
2018-09-12T04:03:13.584Z,4.63
2018-09-12T04:05:42.307Z,4.97
2018-09-12T04:08:10.739Z,4.77
2018-09-12T04:10:40.006Z,4.80
2018-09-12T04:13:09.083Z,4.30
2018-09-12T04:15:37.729Z,4.73
2018-09-12T04:18:06.920Z,5.70
2018-09-12T04:20:35.387Z,5.23
2018-09-12T04:23:03.868Z,4.83
2018-09-12T04:25:32.347Z,4.93
2018-09-12T04:28:00.769Z,4.67
2018-09-12T04:30:29.264Z,4.70
2018-09-12T04:32:57.719Z,5.90
2018-09-12T04:35:26.182Z,4.37
2018-09-12T04:37:54.679Z,4.60
2018-09-12T04:40:23.154Z,4.80
2018-09-12T04:42:51.673Z,3.90
2018-09-12T04:45:20.382Z,4.30
2018-09-12T04:47:48.857Z,4.60
2018-09-12T04:50:17.247Z,5.40
2018-09-12T04:52:45.709Z,4.07
2018-09-12T04:55:14.255Z,4.77
2018-09-12T04:57:42.645Z,5.23
2018-09-12T05:00:11.601Z,5.00
2018-09-12T05:02:40.087Z,4.90
2018-09-12T05:05:09.243Z,4.37
2018-09-12T05:07:37.791Z,4.47
2018-09-12T05:10:06.377Z,4.50
2018-09-12T05:12:35.091Z,4.80
2018-09-12T05:15:03.641Z,4.20
2018-09-12T05:17:32.062Z,3.90
2018-09-12T05:20:00.625Z,4.20
2018-09-12T05:22:29.124Z,3.80
2018-09-12T05:24:57.602Z,4.00
2018-09-12T05:27:26.286Z,3.60
2018-09-12T05:29:54.736Z,4.67
2018-09-12T05:32:23.197Z,4.20
2018-09-12T05:34:51.762Z,5.13
2018-09-12T05:37:20.221Z,4.07
2018-09-12T05:39:49.489Z,4.80
2018-09-12T05:42:17.879Z,4.33
2018-09-12T05:44:46.308Z,4.50
2018-09-12T05:47:14.776Z,4.40
2018-09-12T05:49:43.247Z,4.03
2018-09-12T05:52:11.602Z,4.60
2018-09-12T05:54:40.092Z,5.10
2018-09-12T05:57:08.741Z,4.53
2018-09-12T05:59:37.801Z,4.63
2018-09-12T06:02:07.020Z,4.27
2018-09-12T06:04:35.624Z,4.50
2018-09-12T06:07:04.583Z,4.30
2018-09-12T06:09:33.093Z,4.40
2018-09-12T06:12:01.529Z,4.47
2018-09-12T06:14:29.960Z,4.90
2018-09-12T06:16:58.409Z,4.37
2018-09-12T06:19:26.945Z,4.30
2018-09-12T06:21:55.452Z,4.33
2018-09-12T06:24:23.858Z,4.27
2018-09-12T06:26:52.368Z,5.13
2018-09-12T06:29:20.762Z,4.00
2018-09-12T06:31:49.195Z,4.23
2018-09-12T06:34:17.738Z,4.23
2018-09-12T06:36:46.285Z,4.00
2018-09-12T06:39:14.726Z,3.80
2018-09-12T06:41:43.369Z,4.30
2018-09-12T06:44:12.013Z,4.80
2018-09-12T06:46:40.441Z,4.83
2018-09-12T06:49:08.870Z,4.90
2018-09-12T06:51:37.686Z,4.67
2018-09-12T06:54:06.222Z,4.67
2018-09-12T06:56:34.673Z,4.57
2018-09-12T06:59:03.218Z,4.10
2018-09-12T07:01:31.666Z,4.03
2018-09-12T07:04:00.142Z,4.40
2018-09-12T07:06:28.578Z,4.23
2018-09-12T07:08:57.021Z,4.07
2018-09-12T07:11:25.479Z,4.03
2018-09-12T07:13:53.947Z,4.13
2018-09-12T07:16:22.404Z,4.43
2018-09-12T07:18:50.955Z,4.03
2018-09-12T07:21:19.356Z,4.20
2018-09-12T07:23:47.952Z,3.80
2018-09-12T07:26:16.315Z,4.17
2018-09-12T07:28:44.864Z,4.30
2018-09-12T07:31:13.297Z,4.13
2018-09-12T07:33:41.980Z,4.13
2018-09-12T07:36:10.350Z,4.13
2018-09-12T07:38:39.149Z,4.07
2018-09-12T07:41:07.963Z,3.73
2018-09-12T07:43:36.404Z,4.13
2018-09-12T07:46:05.135Z,4.10
2018-09-12T07:48:33.549Z,4.07
2018-09-12T07:51:02.026Z,4.47
2018-09-12T07:53:30.458Z,4.03
2018-09-12T07:55:59.119Z,3.87
2018-09-12T07:58:27.707Z,4.20
2018-09-12T08:00:56.217Z,4.60
2018-09-12T08:03:24.623Z,4.77
2018-09-12T08:05:53.079Z,4.00
2018-09-12T08:08:21.582Z,4.40
2018-09-12T08:10:50.022Z,4.13
2018-09-12T08:13:18.435Z,4.83
2018-09-12T08:15:46.994Z,4.70
2018-09-12T08:18:15.432Z,4.77
2018-09-12T08:20:43.927Z,5.17
2018-09-12T08:23:12.441Z,4.80
2018-09-12T08:25:41.029Z,5.43
2018-09-12T08:28:09.566Z,4.90
2018-09-12T08:30:38.714Z,5.03
2018-09-12T08:33:07.767Z,5.07
2018-09-12T08:35:36.286Z,4.97
2018-09-12T08:38:05.456Z,5.23
2018-09-12T08:40:34.026Z,5.53
2018-09-12T08:43:02.458Z,5.53
2018-09-12T08:45:31.018Z,6.10
2018-09-12T08:47:59.497Z,5.77
2018-09-12T08:50:27.955Z,5.43
2018-09-12T08:52:56.750Z,5.67
2018-09-12T08:55:25.673Z,5.43
2018-09-12T08:57:54.247Z,5.80
2018-09-12T09:00:27.028Z,6.93
2018-09-12T09:02:55.838Z,5.70
2018-09-12T09:05:24.346Z,5.63
2018-09-12T09:07:52.748Z,4.97
2018-09-12T09:10:21.243Z,4.87
2018-09-12T09:12:49.709Z,4.70
2018-09-12T09:15:18.175Z,5.40
2018-09-12T09:17:46.694Z,4.53
2018-09-12T09:20:15.211Z,4.43
2018-09-12T09:22:43.651Z,4.57
2018-09-12T09:25:12.087Z,5.67
2018-09-12T09:27:40.780Z,4.60
2018-09-12T09:30:10.111Z,4.60
2018-09-12T09:32:39.721Z,4.73
2018-09-12T09:35:10.309Z,4.27
2018-09-12T09:37:39.943Z,4.63
2018-09-12T09:40:10.262Z,4.57
2018-09-12T09:42:39.365Z,4.20
2018-09-12T09:45:08.792Z,4.77
2018-09-12T09:47:37.881Z,4.10
2018-09-12T09:50:06.737Z,4.47
2018-09-12T09:52:35.770Z,3.93
2018-09-12T09:55:04.614Z,4.27
2018-09-12T09:57:33.214Z,3.90
2018-09-12T10:00:01.656Z,3.90
2018-09-12T10:02:35.378Z,3.70
2018-09-12T10:05:09.299Z,4.40
2018-09-12T10:07:43.153Z,4.60
2018-09-12T10:10:11.711Z,3.90
2018-09-12T10:12:40.240Z,4.30
2018-09-12T10:15:09.461Z,3.87
2018-09-12T10:17:38.024Z,3.87
2018-09-12T10:20:06.690Z,4.10
2018-09-12T10:22:35.542Z,3.80
2018-09-12T10:25:04.697Z,3.73
2018-09-12T10:27:33.168Z,4.20
2018-09-12T10:30:01.566Z,4.10
2018-09-12T10:32:30.075Z,3.83
2018-09-12T10:34:58.531Z,3.73
2018-09-12T10:37:26.951Z,3.80
2018-09-12T10:39:55.362Z,3.90
2018-09-12T10:42:23.868Z,3.60
2018-09-12T10:44:52.334Z,3.20
2018-09-12T10:48:50.111Z,3.30
2018-09-12T10:51:18.617Z,3.60
2018-09-12T10:53:47.089Z,4.07
2018-09-12T10:56:15.647Z,3.90
2018-09-12T10:58:44.120Z,4.17
2018-09-12T11:01:12.597Z,3.40
2018-09-12T11:03:41.080Z,4.00
2018-09-12T11:06:10.270Z,3.93
2018-09-12T11:08:39.534Z,3.67
2018-09-12T11:11:08.474Z,3.40
2018-09-12T11:13:37.373Z,3.47
2018-09-12T11:16:06.232Z,3.40
2018-09-12T11:18:34.827Z,3.30
2018-09-12T11:21:03.328Z,3.77
2018-09-12T11:23:31.826Z,3.47
2018-09-12T11:26:00.266Z,4.17
2018-09-12T11:28:28.777Z,3.83
2018-09-12T11:30:57.252Z,3.60
2018-09-12T11:33:25.745Z,3.83
2018-09-12T11:35:54.151Z,3.87
2018-09-12T11:38:22.642Z,4.37
2018-09-12T11:40:51.250Z,3.90
2018-09-12T11:43:19.731Z,3.93
2018-09-12T11:45:48.114Z,4.17
2018-09-12T11:48:16.786Z,3.70
2018-09-12T11:50:45.205Z,3.73
2018-09-12T11:53:13.780Z,3.60
2018-09-12T11:55:42.250Z,3.40
2018-09-12T11:58:10.651Z,3.43
2018-09-12T12:00:39.416Z,3.60
2018-09-12T12:03:08.174Z,3.87
2018-09-12T12:05:36.742Z,3.97
2018-09-12T12:08:05.313Z,3.70
2018-09-12T12:10:33.764Z,4.03
2018-09-12T12:13:02.271Z,3.60
2018-09-12T12:15:30.702Z,3.77
2018-09-12T12:17:59.233Z,4.03
2018-09-12T12:20:27.671Z,3.83
2018-09-12T12:22:56.241Z,3.97
2018-09-12T12:25:24.698Z,4.07
2018-09-12T12:27:53.264Z,4.20
2018-09-12T12:30:21.856Z,3.83
2018-09-12T12:32:50.342Z,4.23
2018-09-12T12:35:18.941Z,3.90
2018-09-12T12:37:47.538Z,3.47
2018-09-12T12:40:15.993Z,4.33
2018-09-12T12:42:44.563Z,3.70
2018-09-12T12:45:13.044Z,3.73
2018-09-12T12:47:41.442Z,3.93
2018-09-12T12:50:10.903Z,4.00
2018-09-12T12:52:39.921Z,3.73
2018-09-12T12:55:09.038Z,4.03
2018-09-12T12:57:37.600Z,3.80
2018-09-12T13:00:06.461Z,3.43
2018-09-12T13:02:34.936Z,3.70
2018-09-12T13:05:03.672Z,4.13
2018-09-12T13:07:32.249Z,3.33
2018-09-12T13:10:00.757Z,3.47
2018-09-12T13:12:29.303Z,3.60
2018-09-12T13:14:57.724Z,3.40
2018-09-12T13:17:26.492Z,3.57
2018-09-12T13:19:54.930Z,3.17
2018-09-12T13:22:23.401Z,3.43
2018-09-12T13:24:51.845Z,3.50
2018-09-12T13:27:20.375Z,3.47
2018-09-12T13:29:48.977Z,3.43
2018-09-12T13:32:17.548Z,3.60
2018-09-12T13:34:46.017Z,3.50
2018-09-12T13:37:14.428Z,4.17
2018-09-12T13:39:43.092Z,3.30
2018-09-12T13:42:12.536Z,3.50
2018-09-12T13:44:41.006Z,3.23
2018-09-12T13:47:10.526Z,3.70
2018-09-12T13:49:39.698Z,3.63
2018-09-12T13:52:10.192Z,3.63
2018-09-12T13:54:39.394Z,3.53
2018-09-12T13:57:08.184Z,3.90
2018-09-12T13:59:36.640Z,4.00
2018-09-12T14:02:06.091Z,3.73
2018-09-12T14:04:34.590Z,4.03
2018-09-12T14:07:03.164Z,4.20
2018-09-12T14:09:31.635Z,3.80
2018-09-12T14:12:01.498Z,4.33
2018-09-12T14:14:29.945Z,4.03
2018-09-12T14:16:58.480Z,4.33
2018-09-12T14:19:26.923Z,3.63
2018-09-12T14:21:56.513Z,3.90
2018-09-12T14:27:57.122Z,3.93
2018-09-12T14:30:25.742Z,4.10
2018-09-12T14:32:54.374Z,4.17
2018-09-12T14:35:22.869Z,3.97
2018-09-12T14:37:51.301Z,3.70
2018-09-12T14:40:19.890Z,3.93
2018-09-12T14:42:48.364Z,4.03
2018-09-12T14:45:16.902Z,4.23
2018-09-12T14:47:45.337Z,7.20
2018-09-12T14:50:13.853Z,4.77
2018-09-12T14:52:42.386Z,6.30
2018-09-12T14:55:10.960Z,4.43
2018-09-12T14:57:40.033Z,4.40
2018-09-12T15:00:09.472Z,4.50
2018-09-12T15:02:38.291Z,4.20
2018-09-12T15:05:06.956Z,4.63
2018-09-12T15:07:36.446Z,4.23
2018-09-12T15:10:05.358Z,4.37
2018-09-12T15:12:33.819Z,4.23
2018-09-12T15:15:02.360Z,4.07
2018-09-12T15:17:30.771Z,4.33
2018-09-12T15:19:59.246Z,4.47
2018-09-12T15:22:27.711Z,4.43
2018-09-12T15:24:56.165Z,4.60
2018-09-12T15:27:24.673Z,4.40
2018-09-12T15:29:53.168Z,4.23
2018-09-12T15:32:21.658Z,4.13
2018-09-12T15:34:50.381Z,5.03
2018-09-12T15:37:18.834Z,4.73
2018-09-12T15:39:47.390Z,4.80
2018-09-12T15:42:15.851Z,4.60
2018-09-12T15:44:44.680Z,4.40
2018-09-12T15:47:13.181Z,5.00
2018-09-12T15:49:41.847Z,5.23
2018-09-12T15:52:10.343Z,4.73
2018-09-12T15:54:39.433Z,5.23
2018-09-12T15:57:08.477Z,5.00
2018-09-12T15:59:36.901Z,5.50
2018-09-12T16:02:05.829Z,5.10
2018-09-12T16:04:34.295Z,4.40
2018-09-12T16:07:02.806Z,4.70
2018-09-12T16:09:31.302Z,4.20
2018-09-12T16:11:59.845Z,4.67
2018-09-12T16:14:28.326Z,5.30
2018-09-12T16:16:56.926Z,5.50
2018-09-12T16:19:25.551Z,4.90
2018-09-12T16:21:54.158Z,5.03
2018-09-12T16:24:22.784Z,5.43
2018-09-12T16:26:51.220Z,5.63
2018-09-12T16:29:19.719Z,5.20
2018-09-12T16:31:48.158Z,5.07
2018-09-12T16:34:16.743Z,4.97
2018-09-12T16:36:45.285Z,4.93
2018-09-12T16:39:14.074Z,4.93
2018-09-12T16:41:42.782Z,5.03
2018-09-12T16:44:11.298Z,6.63
2018-09-12T16:46:40.463Z,7.33
2018-09-12T16:49:09.429Z,6.70
2018-09-12T16:51:38.562Z,5.40
2018-09-12T16:54:07.475Z,4.70
2018-09-12T16:56:37.483Z,4.93
2018-09-12T16:59:06.048Z,13.27
2018-09-12T17:01:34.547Z,11.37
2018-09-12T17:04:02.950Z,5.43
2018-09-12T17:06:31.541Z,5.00
2018-09-12T17:08:59.993Z,5.27
2018-09-12T17:11:28.460Z,5.00
2018-09-12T17:13:56.928Z,4.63
2018-09-12T17:16:25.601Z,4.40
2018-09-12T17:18:54.220Z,5.00
2018-09-12T17:21:22.734Z,4.73
2018-09-12T17:23:51.239Z,4.97
2018-09-12T17:26:19.828Z,4.63
2018-09-12T17:28:48.323Z,5.00
2018-09-12T17:31:17.784Z,5.27
2018-09-12T17:33:46.217Z,4.90
2018-09-12T17:36:14.722Z,5.23
2018-09-12T17:38:43.161Z,5.00
2018-09-12T17:41:12.871Z,4.87
2018-09-12T17:43:41.376Z,5.07
2018-09-12T17:46:10.611Z,5.00
2018-09-12T17:48:39.648Z,4.93
2018-09-12T17:51:08.331Z,5.23
2018-09-12T17:53:36.862Z,4.87
2018-09-12T17:56:05.453Z,4.97
2018-09-12T17:58:34.035Z,5.83
2018-09-12T18:01:02.633Z,5.00
2018-09-12T18:03:31.065Z,4.70
2018-09-12T18:05:59.616Z,5.33
2018-09-12T18:08:28.079Z,5.63
2018-09-12T18:10:56.629Z,5.77
2018-09-12T18:13:25.344Z,5.03
2018-09-12T18:15:53.994Z,5.57
2018-09-12T18:18:22.409Z,5.10
2018-09-12T18:20:50.973Z,4.80
2018-09-12T18:23:19.486Z,5.10
2018-09-12T18:25:47.972Z,5.17
2018-09-12T18:28:16.365Z,5.03
2018-09-12T18:30:44.807Z,4.97
2018-09-12T18:33:13.503Z,5.27
2018-09-12T18:35:42.046Z,5.00
2018-09-12T18:38:10.546Z,4.30
2018-09-12T18:40:39.525Z,4.87
2018-09-12T18:43:08.485Z,4.90
2018-09-12T18:45:37.103Z,4.80
2018-09-12T18:48:05.724Z,4.60
2018-09-12T18:50:35.267Z,5.10
2018-09-12T18:53:03.813Z,4.47
2018-09-12T18:55:32.426Z,4.63
2018-09-12T18:58:00.856Z,4.73
2018-09-12T19:00:30.269Z,5.27
2018-09-12T19:02:59.753Z,4.57
2018-09-12T19:05:28.816Z,4.73
2018-09-12T19:07:57.264Z,5.00
2018-09-12T19:10:25.699Z,4.73
2018-09-12T19:12:54.439Z,4.90
2018-09-12T19:15:23.095Z,4.70
2018-09-12T19:17:51.549Z,4.80
2018-09-12T19:20:21.104Z,5.07
2018-09-12T19:22:49.586Z,4.50
2018-09-12T19:25:18.203Z,4.57
2018-09-12T19:27:46.728Z,4.53
2018-09-12T19:30:15.185Z,4.80
2018-09-12T19:32:44.260Z,4.60
2018-09-12T19:35:12.775Z,5.00
2018-09-12T19:37:41.200Z,4.73
2018-09-12T19:40:10.344Z,4.90
2018-09-12T19:42:39.260Z,4.77
2018-09-12T19:45:08.544Z,4.50
2018-09-12T19:47:37.005Z,4.87
2018-09-12T19:50:05.569Z,5.00
2018-09-12T19:52:33.959Z,4.70
2018-09-12T19:55:02.527Z,4.77
2018-09-12T19:57:31.076Z,4.77
2018-09-12T19:59:59.649Z,4.87
2018-09-12T20:02:33.495Z,4.90
2018-09-12T20:05:02.383Z,4.57
2018-09-12T20:07:32.114Z,5.10
2018-09-12T20:10:00.818Z,5.27
2018-09-12T20:12:29.296Z,4.87
2018-09-12T20:14:57.751Z,4.77
2018-09-12T20:17:26.185Z,4.97
2018-09-12T20:19:54.678Z,4.90
2018-09-12T20:22:23.179Z,4.43
2018-09-12T20:24:51.686Z,5.33
2018-09-12T20:27:20.215Z,4.70
2018-09-12T20:29:48.707Z,4.63
2018-09-12T20:32:17.219Z,4.50
2018-09-12T20:34:45.629Z,4.90
2018-09-12T20:37:14.643Z,4.53
2018-09-12T20:39:43.334Z,4.50
2018-09-12T20:42:11.887Z,4.80
2018-09-12T20:44:40.773Z,5.07
2018-09-12T20:47:10.103Z,4.60
2018-09-12T20:49:39.367Z,4.40
2018-09-12T20:52:10.574Z,5.00
2018-09-12T20:54:39.765Z,4.77
2018-09-12T20:57:09.840Z,4.43
2018-09-12T20:59:38.957Z,4.63
2018-09-12T21:02:08.550Z,4.97
2018-09-12T21:04:36.999Z,4.50
2018-09-12T21:07:05.616Z,4.50
2018-09-12T21:09:34.052Z,4.73
2018-09-12T21:12:03.473Z,4.40
2018-09-12T21:14:31.986Z,4.13
2018-09-12T21:17:00.539Z,4.80
2018-09-12T21:19:28.944Z,4.50
2018-09-12T21:21:57.387Z,4.57
2018-09-12T21:24:26.136Z,4.70
2018-09-12T21:26:54.699Z,4.67
2018-09-12T21:29:23.067Z,5.20
2018-09-12T21:31:51.618Z,4.87
2018-09-12T21:34:20.022Z,5.00
2018-09-12T21:36:48.480Z,4.90
2018-09-12T21:39:16.834Z,4.50
2018-09-12T21:41:45.375Z,5.80
2018-09-12T21:44:13.911Z,4.83
2018-09-12T21:46:42.426Z,4.67
2018-09-12T21:49:10.908Z,4.60
2018-09-12T21:51:39.991Z,4.37
2018-09-12T21:54:08.655Z,4.60
2018-09-12T21:56:37.080Z,5.00
2018-09-12T21:59:05.495Z,4.67
2018-09-12T22:01:35.107Z,5.63
2018-09-12T22:04:03.564Z,7.13
2018-09-12T22:06:32.137Z,6.53
2018-09-12T22:09:00.526Z,7.10
2018-09-12T22:11:29.028Z,6.67
2018-09-12T22:13:57.403Z,7.20
2018-09-12T22:16:25.910Z,6.90
2018-09-12T22:18:54.344Z,6.70
2018-09-12T22:21:22.917Z,6.77
2018-09-12T22:23:51.276Z,6.67
2018-09-12T22:26:19.847Z,6.40
2018-09-12T22:28:48.265Z,6.53
2018-09-12T22:31:16.777Z,6.60
2018-09-12T22:33:45.300Z,6.47
2018-09-12T22:36:14.138Z,6.67
2018-09-12T22:38:42.670Z,6.67
2018-09-12T22:41:11.314Z,7.17
2018-09-12T22:43:40.353Z,6.47
2018-09-12T22:46:10.919Z,7.43
2018-09-12T22:48:40.002Z,7.53
2018-09-12T22:51:08.657Z,6.70
2018-09-12T22:53:37.058Z,7.23
2018-09-12T22:56:05.645Z,7.30
2018-09-12T22:58:34.114Z,7.53
2018-09-12T23:01:02.628Z,7.50
2018-09-12T23:03:31.113Z,7.23
2018-09-12T23:05:59.537Z,7.37
2018-09-12T23:08:27.958Z,7.00
2018-09-12T23:10:56.367Z,6.80
2018-09-12T23:13:24.810Z,6.77
2018-09-12T23:15:53.283Z,6.97
2018-09-12T23:18:22.019Z,7.00
2018-09-12T23:20:50.556Z,6.37
2018-09-12T23:23:18.983Z,6.53
2018-09-12T23:25:47.464Z,6.63
2018-09-12T23:28:15.903Z,6.80
2018-09-12T23:30:44.368Z,6.87
2018-09-12T23:33:12.808Z,6.53
2018-09-12T23:35:41.322Z,6.30
2018-09-12T23:38:10.161Z,6.07
2018-09-12T23:40:38.995Z,5.60
2018-09-12T23:43:08.173Z,6.33
2018-09-12T23:45:36.634Z,6.13
2018-09-12T23:48:05.555Z,6.40
2018-09-12T23:50:34.022Z,6.07
2018-09-12T23:53:02.506Z,6.47
2018-09-12T23:55:30.980Z,6.17
2018-09-12T23:59:02.685Z,6.03
